Time;durP1;ratioP1;P1;durP2;ratioP2;P2;SDS_P1;SDS_P2;PMS_P1;PMS_P2;Temp;Humidity;BMP_temperature;BMP_pressure;BME280_temperature;BME280_humidity;BME280_pressure;Samples;Min_cycle;Max_cycle;Signal;HPM_P1;HPM_P2
2021/06/27 00:01:10;;;;;;;9.27;8.48;;;;;;;;;;4969993;28;20465;-54
2021/06/27 00:03:37;;;;;;;8.67;7.97;;;;;;;;;;4971519;28;20187;-54
2021/06/27 00:06:04;;;;;;;7.70;7.07;;;;;;;;;;4976007;28;20290;-54
2021/06/27 00:08:30;;;;;;;8.53;7.33;;;;;;;;;;4938435;29;20705;-53
2021/06/27 00:10:58;;;;;;;10.40;7.97;;;;;;;;;;4967803;28;20655;-52
2021/06/27 00:13:24;;;;;;;8.67;7.87;;;;;;;;;;4968853;28;20542;-56
2021/06/27 00:15:51;;;;;;;8.63;7.93;;;;;;;;;;4970490;28;20183;-53
2021/06/27 00:18:19;;;;;;;8.30;7.50;;;;;;;;;;4971394;28;20176;-53
2021/06/27 00:20:46;;;;;;;8.20;7.40;;;;;;;;;;4969238;28;20521;-53
2021/06/27 00:23:13;;;;;;;8.00;7.40;;;;;;;;;;4957006;28;20183;-53
2021/06/27 00:25:42;;;;;;;8.57;7.87;;;;;;;;;;4973196;28;20203;-53
2021/06/27 00:28:08;;;;;;;8.23;7.53;;;;;;;;;;4948248;29;20197;-52
2021/06/27 00:30:36;;;;;;;8.63;7.83;;;;;;;;;;4967539;28;20188;-55
2021/06/27 00:33:03;;;;;;;9.80;8.70;;;;;;;;;;4962715;28;20194;-53
2021/06/27 00:35:30;;;;;;;10.13;9.13;;;;;;;;;;4971590;28;20193;-52
2021/06/27 00:37:56;;;;;;;10.20;9.17;;;;;;;;;;4969568;28;20235;-52
2021/06/27 00:40:23;;;;;;;10.40;9.40;;;;;;;;;;4960293;28;20190;-52
2021/06/27 00:42:49;;;;;;;10.90;9.93;;;;;;;;;;4967791;28;20189;-53
2021/06/27 00:45:16;;;;;;;11.70;10.60;;;;;;;;;;4957641;28;20622;-53
2021/06/27 00:47:43;;;;;;;10.93;10.00;;;;;;;;;;4970903;28;20189;-53
2021/06/27 00:50:15;;;;;;;10.83;9.83;;;;;;;;;;4969341;28;20185;-53
2021/06/27 00:52:41;;;;;;;10.73;9.83;;;;;;;;;;4968298;28;20183;-54
2021/06/27 00:55:07;;;;;;;11.27;10.27;;;;;;;;;;4971294;28;20378;-52
2021/06/27 00:57:33;;;;;;;10.10;9.20;;;;;;;;;;4969878;28;20196;-52
2021/06/27 01:00:01;;;;;;;11.07;10.07;;;;;;;;;;4965935;28;20192;-52
2021/06/27 01:02:27;;;;;;;9.67;8.77;;;;;;;;;;4965617;28;20191;-53
2021/06/27 01:04:53;;;;;;;9.43;8.53;;;;;;;;;;4976943;28;20196;-55
2021/06/27 01:07:19;;;;;;;9.40;8.53;;;;;;;;;;4974470;28;20212;-55
2021/06/27 01:09:45;;;;;;;9.53;8.70;;;;;;;;;;4959058;28;20231;-56
2021/06/27 01:12:11;;;;;;;10.53;8.13;;;;;;;;;;4947448;29;20204;-51
2021/06/27 01:14:37;;;;;;;10.03;9.13;;;;;;;;;;4951651;28;20192;-54
2021/06/27 01:17:04;;;;;;;9.20;8.50;;;;;;;;;;4960703;28;20539;-52
2021/06/27 01:19:31;;;;;;;9.27;8.47;;;;;;;;;;4953700;28;20188;-52
2021/06/27 01:21:57;;;;;;;9.53;8.63;;;;;;;;;;4954306;29;20260;-51
2021/06/27 01:24:23;;;;;;;9.07;8.27;;;;;;;;;;4943687;29;20185;-52
2021/06/27 01:26:49;;;;;;;9.50;8.70;;;;;;;;;;4944068;29;20604;-53
2021/06/27 01:29:17;;;;;;;8.70;8.00;;;;;;;;;;4940152;29;20235;-52
2021/06/27 01:31:44;;;;;;;9.10;8.20;;;;;;;;;;4954589;29;20710;-52
2021/06/27 01:34:10;;;;;;;10.00;9.00;;;;;;;;;;4953377;29;20177;-52
2021/06/27 01:36:46;;;;;;;8.47;7.67;;;;;;;;;;4958271;28;20219;-55
2021/06/27 01:39:12;;;;;;;9.30;8.40;;;;;;;;;;4948812;29;20192;-52
2021/06/27 01:41:46;;;;;;;9.23;8.43;;;;;;;;;;4946385;29;20193;-52
2021/06/27 01:44:12;;;;;;;9.23;8.33;;;;;;;;;;4953486;29;20189;-52
2021/06/27 01:46:39;;;;;;;8.77;7.90;;;;;;;;;;4951515;29;20594;-53
2021/06/27 01:49:05;;;;;;;9.47;8.57;;;;;;;;;;4953696;29;20536;-52
2021/06/27 01:51:31;;;;;;;9.03;8.23;;;;;;;;;;4953077;29;20195;-53
2021/06/27 01:53:57;;;;;;;8.23;7.53;;;;;;;;;;4949832;29;20185;-52
2021/06/27 01:56:23;;;;;;;8.90;8.10;;;;;;;;;;4949928;29;20184;-52
2021/06/27 01:58:51;;;;;;;8.53;7.73;;;;;;;;;;4962454;28;20193;-52
2021/06/27 02:01:22;;;;;;;8.90;8.10;;;;;;;;;;4962019;28;20188;-52
2021/06/27 02:03:50;;;;;;;8.97;8.17;;;;;;;;;;4953061;29;20259;-54
2021/06/27 02:06:17;;;;;;;9.17;8.27;;;;;;;;;;4952838;28;20209;-52
2021/06/27 02:08:43;;;;;;;8.30;7.60;;;;;;;;;;4955140;28;20241;-52
2021/06/27 02:11:10;;;;;;;8.97;8.17;;;;;;;;;;4972952;28;20157;-52
2021/06/27 02:13:37;;;;;;;9.03;8.30;;;;;;;;;;4966435;28;20193;-54
2021/06/27 02:16:03;;;;;;;8.67;7.87;;;;;;;;;;4971766;28;20232;-51
2021/06/27 02:18:35;;;;;;;7.87;7.27;;;;;;;;;;4972074;28;20192;-52
2021/06/27 02:21:03;;;;;;;8.07;7.37;;;;;;;;;;4971859;28;20238;-54
2021/06/27 02:23:30;;;;;;;8.70;7.90;;;;;;;;;;4953562;28;20185;-53
2021/06/27 02:25:56;;;;;;;8.43;7.73;;;;;;;;;;4971794;28;20213;-53
2021/06/27 02:28:22;;;;;;;8.57;7.87;;;;;;;;;;4971909;28;20188;-53
2021/06/27 02:30:49;;;;;;;8.97;8.17;;;;;;;;;;4972091;28;20223;-53
2021/06/27 02:33:15;;;;;;;8.53;7.73;;;;;;;;;;4972677;28;20525;-52
2021/06/27 02:35:41;;;;;;;8.10;7.40;;;;;;;;;;4971237;28;20213;-52
2021/06/27 02:38:07;;;;;;;8.40;7.60;;;;;;;;;;4972087;28;20182;-53
2021/06/27 02:40:33;;;;;;;9.23;8.47;;;;;;;;;;4954218;28;20188;-51
2021/06/27 02:42:59;;;;;;;8.60;7.90;;;;;;;;;;4972282;28;20635;-52
2021/06/27 02:45:26;;;;;;;8.37;7.57;;;;;;;;;;4986045;28;20186;-52
2021/06/27 02:47:52;;;;;;;9.02;8.13;;;;;;;;;;4972214;28;21003;-52
2021/06/27 02:50:18;;;;;;;7.57;6.97;;;;;;;;;;4970305;28;20186;-52
2021/06/27 02:52:44;;;;;;;8.47;7.73;;;;;;;;;;4954349;28;20558;-52
2021/06/27 02:55:11;;;;;;;9.57;8.67;;;;;;;;;;4967088;28;20533;-51
2021/06/27 02:57:39;;;;;;;8.87;7.33;;;;;;;;;;4971130;28;20196;-52
2021/06/27 03:00:06;;;;;;;8.40;7.70;;;;;;;;;;4970978;28;20187;-52
2021/06/27 03:02:32;;;;;;;8.00;7.30;;;;;;;;;;4970307;28;20913;-52
2021/06/27 03:04:58;;;;;;;7.73;7.13;;;;;;;;;;4970789;28;20191;-52
2021/06/27 03:07:24;;;;;;;8.63;7.93;;;;;;;;;;4971526;28;20244;-52
2021/06/27 03:09:50;;;;;;;8.77;7.97;;;;;;;;;;4969594;28;20227;-52
2021/06/27 03:12:16;;;;;;;8.67;7.77;;;;;;;;;;4986468;28;20181;-51
2021/06/27 03:14:42;;;;;;;7.90;7.20;;;;;;;;;;4970996;28;20535;-52
2021/06/27 03:17:08;;;;;;;8.07;7.27;;;;;;;;;;4971414;28;20189;-52
2021/06/27 03:19:34;;;;;;;8.27;7.47;;;;;;;;;;4970426;28;20184;-52
2021/06/27 03:22:00;;;;;;;9.23;8.43;;;;;;;;;;4971366;28;20191;-52
2021/06/27 03:24:26;;;;;;;10.57;7.40;;;;;;;;;;4966248;28;20269;-52
2021/06/27 03:26:52;;;;;;;7.77;7.10;;;;;;;;;;4969435;28;20561;-52
2021/06/27 03:29:18;;;;;;;9.07;8.27;;;;;;;;;;4970280;28;20191;-54
2021/06/27 03:31:44;;;;;;;7.80;7.10;;;;;;;;;;4971543;28;20183;-52
2021/06/27 03:34:10;;;;;;;8.07;7.27;;;;;;;;;;4970399;28;20195;-51
2021/06/27 03:36:36;;;;;;;7.93;7.23;;;;;;;;;;4970718;28;20187;-51
2021/06/27 03:39:08;;;;;;;8.53;7.73;;;;;;;;;;4962095;28;20180;-52
2021/06/27 03:41:41;;;;;;;7.80;7.20;;;;;;;;;;4970944;28;20191;-51
2021/06/27 03:44:08;;;;;;;9.27;8.48;;;;;;;;;;4969600;28;20507;-51
2021/06/27 03:46:34;;;;;;;8.77;7.90;;;;;;;;;;4971209;28;20678;-51
2021/06/27 03:49:00;;;;;;;7.63;7.03;;;;;;;;;;4970141;28;20184;-53
2021/06/27 03:51:26;;;;;;;7.77;7.07;;;;;;;;;;4969250;28;20246;-52
2021/06/27 03:53:52;;;;;;;8.40;7.60;;;;;;;;;;4971466;28;20179;-52
2021/06/27 03:56:19;;;;;;;8.48;7.78;;;;;;;;;;4969547;28;20436;-53
2021/06/27 03:58:46;;;;;;;8.52;7.82;;;;;;;;;;4953666;28;20472;-52
2021/06/27 04:01:12;;;;;;;9.27;8.48;;;;;;;;;;4969339;28;20423;-53
2021/06/27 04:03:38;;;;;;;9.10;8.30;;;;;;;;;;4967402;28;20404;-54
2021/06/27 04:06:04;;;;;;;8.80;8.10;;;;;;;;;;4944567;28;20444;-52
2021/06/27 04:08:31;;;;;;;8.50;7.80;;;;;;;;;;4963954;28;20410;-52
2021/06/27 04:10:58;;;;;;;7.80;7.10;;;;;;;;;;4951393;29;20174;-51
2021/06/27 04:13:25;;;;;;;7.77;7.07;;;;;;;;;;4951299;29;20504;-56
2021/06/27 04:15:51;;;;;;;7.70;7.00;;;;;;;;;;4951445;29;20655;-52
2021/06/27 04:18:18;;;;;;;7.83;7.03;;;;;;;;;;4961085;28;20531;-51
2021/06/27 04:20:44;;;;;;;8.50;7.23;;;;;;;;;;4954361;28;20187;-54
2021/06/27 04:23:10;;;;;;;7.40;6.67;;;;;;;;;;4952709;28;20187;-52
2021/06/27 04:25:36;;;;;;;7.67;7.07;;;;;;;;;;4951278;29;20187;-52
2021/06/27 04:28:03;;;;;;;8.63;7.93;;;;;;;;;;4941070;29;20216;-54
2021/06/27 04:30:29;;;;;;;7.70;7.00;;;;;;;;;;4951534;29;20246;-53
2021/06/27 04:32:55;;;;;;;7.70;7.10;;;;;;;;;;4951548;29;20212;-52
2021/06/27 04:35:21;;;;;;;8.57;7.77;;;;;;;;;;4948461;29;20197;-52
2021/06/27 04:37:47;;;;;;;7.60;6.90;;;;;;;;;;4966659;28;20181;-51
2021/06/27 04:40:13;;;;;;;7.67;6.97;;;;;;;;;;4950374;29;20180;-52
2021/06/27 04:42:39;;;;;;;8.00;7.30;;;;;;;;;;4950647;29;20635;-53
2021/06/27 04:45:06;;;;;;;8.97;8.17;;;;;;;;;;4940930;29;20189;-52
2021/06/27 04:47:32;;;;;;;8.03;7.37;;;;;;;;;;4941648;29;20205;-51
2021/06/27 04:49:58;;;;;;;7.23;6.63;;;;;;;;;;4950969;28;20661;-52
2021/06/27 04:52:24;;;;;;;7.47;6.77;;;;;;;;;;4951998;29;20731;-52
2021/06/27 04:54:50;;;;;;;7.30;6.60;;;;;;;;;;4951787;29;20200;-52
2021/06/27 04:57:16;;;;;;;7.60;7.00;;;;;;;;;;4941587;29;20652;-52
2021/06/27 04:59:42;;;;;;;7.27;6.67;;;;;;;;;;4954769;29;20268;-54
2021/06/27 05:02:08;;;;;;;7.17;6.57;;;;;;;;;;4954771;29;20273;-52
2021/06/27 05:04:34;;;;;;;7.70;6.47;;;;;;;;;;4953638;29;20754;-53
2021/06/27 05:07:00;;;;;;;7.20;6.57;;;;;;;;;;4940147;29;20290;-52
2021/06/27 05:09:26;;;;;;;7.57;6.97;;;;;;;;;;4954150;28;20229;-52
2021/06/27 05:11:52;;;;;;;7.57;6.97;;;;;;;;;;4954629;29;20233;-52
2021/06/27 05:14:18;;;;;;;7.00;6.50;;;;;;;;;;4953830;29;20178;-52
2021/06/27 05:16:44;;;;;;;7.43;6.83;;;;;;;;;;4955043;29;20295;-52
2021/06/27 05:19:10;;;;;;;8.10;7.40;;;;;;;;;;4953299;29;20268;-52
2021/06/27 05:21:36;;;;;;;7.80;7.10;;;;;;;;;;4944838;29;20534;-52
2021/06/27 05:24:02;;;;;;;7.43;6.83;;;;;;;;;;4953214;29;20191;-52
2021/06/27 05:26:29;;;;;;;7.23;6.63;;;;;;;;;;4954370;29;20202;-52
2021/06/27 05:28:55;;;;;;;7.37;6.77;;;;;;;;;;4953726;29;20225;-53
2021/06/27 05:31:21;;;;;;;6.93;6.33;;;;;;;;;;4953933;28;20178;-54
2021/06/27 05:33:47;;;;;;;7.23;6.67;;;;;;;;;;4953920;28;20579;-52
2021/06/27 05:36:13;;;;;;;7.33;6.73;;;;;;;;;;4950261;29;20228;-52
2021/06/27 05:38:39;;;;;;;7.00;6.47;;;;;;;;;;4953874;29;20197;-52
2021/06/27 05:41:05;;;;;;;7.63;7.03;;;;;;;;;;4936757;29;20240;-54
2021/06/27 05:43:31;;;;;;;7.70;7.00;;;;;;;;;;4953226;29;20184;-52
2021/06/27 05:45:58;;;;;;;6.73;6.13;;;;;;;;;;4953689;29;20671;-52
2021/06/27 05:48:24;;;;;;;7.50;6.77;;;;;;;;;;4953351;29;20184;-53
2021/06/27 05:50:50;;;;;;;6.53;6.03;;;;;;;;;;4953185;28;20212;-52
2021/06/27 05:53:16;;;;;;;7.63;6.83;;;;;;;;;;4958435;28;20624;-53
2021/06/27 05:55:42;;;;;;;7.30;6.63;;;;;;;;;;4934766;29;20186;-53
2021/06/27 05:58:08;;;;;;;8.07;7.37;;;;;;;;;;4935013;29;20195;-52
2021/06/27 06:00:34;;;;;;;7.67;7.07;;;;;;;;;;4952647;28;20657;-52
2021/06/27 06:03:00;;;;;;;7.03;6.43;;;;;;;;;;4964959;28;20613;-52
2021/06/27 06:05:26;;;;;;;7.57;6.97;;;;;;;;;;4948316;29;20191;-53
2021/06/27 06:07:53;;;;;;;7.27;6.67;;;;;;;;;;4942792;29;20473;-52
2021/06/27 06:10:19;;;;;;;7.23;6.63;;;;;;;;;;4948240;28;20216;-54
2021/06/27 06:12:46;;;;;;;7.20;6.60;;;;;;;;;;4946061;29;20191;-54
2021/06/27 06:15:12;;;;;;;6.77;6.17;;;;;;;;;;4952038;29;20180;-54
2021/06/27 06:17:39;;;;;;;8.67;6.80;;;;;;;;;;4953758;29;20259;-52
2021/06/27 06:20:05;;;;;;;7.43;6.83;;;;;;;;;;4951467;29;20196;-53
2021/06/27 06:22:32;;;;;;;7.30;6.70;;;;;;;;;;4953089;29;20218;-54
2021/06/27 06:24:58;;;;;;;7.67;7.00;;;;;;;;;;4952840;29;20593;-52
2021/06/27 06:27:24;;;;;;;8.27;7.50;;;;;;;;;;4953135;29;20665;-53
2021/06/27 06:29:50;;;;;;;7.43;6.83;;;;;;;;;;4933955;29;20181;-53
2021/06/27 06:32:16;;;;;;;8.07;7.37;;;;;;;;;;4952968;28;20539;-52
2021/06/27 06:34:42;;;;;;;7.70;7.00;;;;;;;;;;4948594;29;20182;-53
2021/06/27 06:37:08;;;;;;;7.23;6.63;;;;;;;;;;4944796;29;20275;-53
2021/06/27 06:39:34;;;;;;;9.20;8.37;;;;;;;;;;4952755;29;20195;-54
2021/06/27 06:42:00;;;;;;;7.83;7.17;;;;;;;;;;4934729;29;20180;-54
2021/06/27 06:44:26;;;;;;;9.07;8.20;;;;;;;;;;4947024;29;20434;-55
2021/06/27 06:46:52;;;;;;;8.27;7.47;;;;;;;;;;4949919;28;20209;-53
2021/06/27 06:49:18;;;;;;;8.33;7.63;;;;;;;;;;4951966;28;20176;-54
2021/06/27 06:51:45;;;;;;;9.20;8.33;;;;;;;;;;4950836;29;20181;-56
2021/06/27 06:54:11;;;;;;;7.80;7.10;;;;;;;;;;4952612;29;20177;-54
2021/06/27 06:56:37;;;;;;;8.20;7.40;;;;;;;;;;4944700;29;20192;-56
2021/06/27 06:59:03;;;;;;;7.83;7.13;;;;;;;;;;4948930;29;20517;-56
2021/06/27 07:01:30;;;;;;;8.80;7.90;;;;;;;;;;4945135;29;20217;-55
2021/06/27 07:03:56;;;;;;;9.80;7.77;;;;;;;;;;4949812;29;20196;-54
2021/06/27 07:06:22;;;;;;;7.80;7.13;;;;;;;;;;4945399;29;20261;-58
2021/06/27 07:08:48;;;;;;;7.80;7.00;;;;;;;;;;4944305;28;20578;-55
2021/06/27 07:11:14;;;;;;;9.80;6.97;;;;;;;;;;4953219;28;20550;-54
2021/06/27 07:13:40;;;;;;;8.07;7.00;;;;;;;;;;4952484;28;20180;-54
2021/06/27 07:16:06;;;;;;;8.90;8.10;;;;;;;;;;4955832;28;20218;-54
2021/06/27 07:18:32;;;;;;;8.63;7.83;;;;;;;;;;4952654;29;20689;-58
2021/06/27 07:20:58;;;;;;;10.00;7.10;;;;;;;;;;4957769;28;20207;-54
2021/06/27 07:23:24;;;;;;;7.80;7.10;;;;;;;;;;4960261;28;20208;-55
2021/06/27 07:25:50;;;;;;;7.93;7.17;;;;;;;;;;4942464;28;20268;-55
2021/06/27 07:28:16;;;;;;;8.00;7.23;;;;;;;;;;4966335;28;20172;-54
2021/06/27 07:30:43;;;;;;;7.10;6.47;;;;;;;;;;4958217;28;20247;-57
2021/06/27 07:33:11;;;;;;;8.03;7.33;;;;;;;;;;4947462;28;20662;-56
2021/06/27 07:35:37;;;;;;;7.90;7.10;;;;;;;;;;4924083;28;20184;-55
2021/06/27 07:38:03;;;;;;;7.90;7.20;;;;;;;;;;4936967;29;20202;-56
2021/06/27 07:40:29;;;;;;;8.13;7.37;;;;;;;;;;4953274;28;20267;-56
2021/06/27 07:42:55;;;;;;;10.50;7.60;;;;;;;;;;4963749;28;20712;-54
2021/06/27 07:45:21;;;;;;;7.70;7.07;;;;;;;;;;4959473;28;20219;-54
2021/06/27 07:47:47;;;;;;;8.03;7.23;;;;;;;;;;4954386;28;20204;-54
2021/06/27 07:50:13;;;;;;;7.83;7.07;;;;;;;;;;4950935;28;21402;-57
2021/06/27 07:52:39;;;;;;;7.57;6.87;;;;;;;;;;4962108;28;20191;-56
2021/06/27 07:55:06;;;;;;;7.73;7.03;;;;;;;;;;4958731;28;20184;-57
2021/06/27 07:57:32;;;;;;;7.17;6.67;;;;;;;;;;4971097;28;20191;-57
2021/06/27 07:59:58;;;;;;;7.47;6.83;;;;;;;;;;4955261;28;20267;-54
2021/06/27 08:02:24;;;;;;;7.50;6.90;;;;;;;;;;4963135;28;20658;-54
2021/06/27 08:04:50;;;;;;;8.13;7.53;;;;;;;;;;4958178;28;20181;-54
2021/06/27 08:07:16;;;;;;;8.37;7.77;;;;;;;;;;4959534;28;20442;-56
2021/06/27 08:09:42;;;;;;;8.33;7.63;;;;;;;;;;4957008;28;20259;-54
2021/06/27 08:12:09;;;;;;;8.23;7.53;;;;;;;;;;4931482;29;20324;-56
2021/06/27 08:14:35;;;;;;;7.87;7.17;;;;;;;;;;4932581;29;20278;-55
2021/06/27 08:17:01;;;;;;;7.73;7.00;;;;;;;;;;4965036;28;20274;-55
2021/06/27 08:19:27;;;;;;;8.50;6.93;;;;;;;;;;4944487;29;20181;-55
2021/06/27 08:21:53;;;;;;;7.67;7.03;;;;;;;;;;4959614;28;20195;-57
2021/06/27 08:24:19;;;;;;;7.43;6.73;;;;;;;;;;4954477;28;20693;-56
2021/06/27 08:26:45;;;;;;;8.70;7.83;;;;;;;;;;4958491;28;20211;-56
2021/06/27 08:29:11;;;;;;;7.50;6.87;;;;;;;;;;4967798;28;20181;-56
2021/06/27 08:31:37;;;;;;;7.30;6.70;;;;;;;;;;4958388;28;20649;-56
2021/06/27 08:34:03;;;;;;;8.27;7.57;;;;;;;;;;4935509;28;20765;-58
2021/06/27 08:36:30;;;;;;;7.37;6.67;;;;;;;;;;4956908;28;20231;-57
2021/06/27 08:38:56;;;;;;;8.20;7.40;;;;;;;;;;4956500;28;20275;-57
2021/06/27 08:41:22;;;;;;;8.13;7.33;;;;;;;;;;4961092;28;20180;-56
2021/06/27 08:43:48;;;;;;;8.90;7.67;;;;;;;;;;4954097;28;20236;-55
2021/06/27 08:46:15;;;;;;;8.20;7.50;;;;;;;;;;4954639;28;20209;-55
2021/06/27 08:48:41;;;;;;;7.47;6.87;;;;;;;;;;4963823;28;20232;-54
2021/06/27 08:51:09;;;;;;;38.47;10.33;;;;;;;;;;4959220;28;20208;-54
2021/06/27 08:53:35;;;;;;;8.47;7.73;;;;;;;;;;4954553;28;20184;-56
2021/06/27 08:56:05;;;;;;;7.67;6.97;;;;;;;;;;4954124;29;20173;-55
2021/06/27 08:58:39;;;;;;;7.07;6.47;;;;;;;;;;4958519;28;20629;-56
2021/06/27 09:01:06;;;;;;;6.37;5.87;;;;;;;;;;4954303;28;20660;-53
2021/06/27 09:03:32;;;;;;;7.03;6.37;;;;;;;;;;4950362;28;20196;-57
2021/06/27 09:05:59;;;;;;;7.13;6.43;;;;;;;;;;4960022;28;20214;-54
2021/06/27 09:08:25;;;;;;;7.33;6.73;;;;;;;;;;4960338;28;20615;-54
2021/06/27 09:10:53;;;;;;;7.07;6.47;;;;;;;;;;4971495;28;20195;-54
2021/06/27 09:13:36;;;;;;;7.57;6.80;;;;;;;;;;4973443;28;20263;-56
2021/06/27 09:16:02;;;;;;;9.03;6.70;;;;;;;;;;4972429;28;20215;-54
2021/06/27 09:18:28;;;;;;;7.37;6.33;;;;;;;;;;4972093;28;20183;-55
2021/06/27 09:20:56;;;;;;;7.93;7.23;;;;;;;;;;4965553;28;20717;-57
2021/06/27 09:23:38;;;;;;;7.90;7.03;;;;;;;;;;4971689;28;20172;-54
2021/06/27 09:26:04;;;;;;;7.33;6.70;;;;;;;;;;4971463;28;20211;-58
2021/06/27 09:28:43;;;;;;;6.83;6.20;;;;;;;;;;4970984;28;20619;-54
2021/06/27 09:31:09;;;;;;;6.90;6.33;;;;;;;;;;4972104;28;20183;-54
2021/06/27 09:33:35;;;;;;;6.67;5.97;;;;;;;;;;4971994;28;20187;-57
2021/06/27 09:36:03;;;;;;;7.80;7.03;;;;;;;;;;4978906;28;20188;-54
2021/06/27 09:38:36;;;;;;;7.07;6.47;;;;;;;;;;4978350;28;20180;-57
2021/06/27 09:41:08;;;;;;;7.23;6.53;;;;;;;;;;4955406;28;20244;-54
2021/06/27 09:43:35;;;;;;;7.60;7.00;;;;;;;;;;4972926;28;20177;-59
2021/06/27 09:46:14;;;;;;;7.47;6.87;;;;;;;;;;4969682;28;20201;-57
2021/06/27 09:49:06;;;;;;;6.20;5.70;;;;;;;;;;4971231;28;20264;-59
2021/06/27 09:51:33;;;;;;;6.90;6.30;;;;;;;;;;4956973;28;20224;-60
2021/06/27 09:53:59;;;;;;;6.53;6.03;;;;;;;;;;4973842;28;20175;-56
2021/06/27 09:56:26;;;;;;;6.53;5.93;;;;;;;;;;4974043;28;20245;-58
2021/06/27 09:59:01;;;;;;;6.80;6.07;;;;;;;;;;4970987;28;20184;-57
2021/06/27 10:01:28;;;;;;;7.57;6.80;;;;;;;;;;4972995;28;20644;-58
2021/06/27 10:03:55;;;;;;;5.97;5.47;;;;;;;;;;4973027;28;20193;-58
2021/06/27 10:06:23;;;;;;;6.40;5.90;;;;;;;;;;4970262;28;20593;-58
2021/06/27 10:08:49;;;;;;;6.63;6.13;;;;;;;;;;4972456;28;20749;-56
2021/06/27 10:11:18;;;;;;;6.20;5.70;;;;;;;;;;4973924;28;20184;-59
2021/06/27 10:13:48;;;;;;;6.47;5.90;;;;;;;;;;4973111;28;20208;-57
2021/06/27 10:16:23;;;;;;;6.27;5.67;;;;;;;;;;4969367;28;20595;-57
2021/06/27 10:18:50;;;;;;;7.17;5.70;;;;;;;;;;4970218;28;20341;-56
2021/06/27 10:21:16;;;;;;;7.00;6.50;;;;;;;;;;4971307;28;20207;-58
2021/06/27 10:23:43;;;;;;;6.40;5.90;;;;;;;;;;4972171;28;20189;-58
2021/06/27 10:26:09;;;;;;;7.07;6.57;;;;;;;;;;4968170;28;20213;-57
2021/06/27 10:28:36;;;;;;;6.87;6.10;;;;;;;;;;4968087;28;20674;-56
2021/06/27 10:31:02;;;;;;;8.07;5.97;;;;;;;;;;4970335;28;20625;-58
2021/06/27 10:33:28;;;;;;;7.37;5.80;;;;;;;;;;4971631;28;20660;-59
2021/06/27 10:35:54;;;;;;;6.33;5.83;;;;;;;;;;4971275;28;20196;-57
2021/06/27 10:38:22;;;;;;;5.87;5.47;;;;;;;;;;4971770;28;20195;-58
2021/06/27 10:40:49;;;;;;;6.23;5.73;;;;;;;;;;4968514;28;20628;-57
2021/06/27 10:43:15;;;;;;;5.87;5.37;;;;;;;;;;4969483;28;20210;-58
2021/06/27 10:45:41;;;;;;;6.47;5.87;;;;;;;;;;4967299;28;20180;-58
2021/06/27 10:48:26;;;;;;;6.40;6.00;;;;;;;;;;4962588;28;20188;-57
2021/06/27 10:50:53;;;;;;;7.00;6.40;;;;;;;;;;4969552;28;20191;-59
2021/06/27 10:53:19;;;;;;;7.13;6.53;;;;;;;;;;4972828;28;20269;-58
2021/06/27 10:55:45;;;;;;;6.33;5.80;;;;;;;;;;4963568;28;20509;-60
2021/06/27 10:58:13;;;;;;;6.30;5.80;;;;;;;;;;4968636;28;20190;-58
2021/06/27 11:00:57;;;;;;;6.67;6.10;;;;;;;;;;4969702;28;20195;-57
2021/06/27 11:03:37;;;;;;;6.27;5.73;;;;;;;;;;4978113;28;20240;-56
2021/06/27 11:06:04;;;;;;;6.10;5.60;;;;;;;;;;4955267;28;20202;-59
2021/06/27 11:08:35;;;;;;;6.23;5.80;;;;;;;;;;4969978;28;20225;-56
2021/06/27 11:11:03;;;;;;;6.57;5.97;;;;;;;;;;4971193;28;20178;-56
2021/06/27 11:13:30;;;;;;;6.40;5.90;;;;;;;;;;4967880;28;20703;-58
2021/06/27 11:16:06;;;;;;;6.27;5.77;;;;;;;;;;4973488;28;20185;-55
2021/06/27 11:18:46;;;;;;;6.67;6.03;;;;;;;;;;4990731;28;20230;-58
2021/06/27 11:21:14;;;;;;;5.93;5.47;;;;;;;;;;4986007;28;20188;-57
2021/06/27 11:23:57;;;;;;;6.83;6.20;;;;;;;;;;4989378;28;20189;-58
2021/06/27 11:26:38;;;;;;;5.77;5.33;;;;;;;;;;4990330;28;20790;-58
2021/06/27 11:29:37;;;;;;;6.33;5.83;;;;;;;;;;4988020;28;20548;-57
2021/06/27 11:32:05;;;;;;;6.33;5.83;;;;;;;;;;4949922;28;20665;-58
2021/06/27 11:34:32;;;;;;;6.63;5.93;;;;;;;;;;4979628;28;20192;-59
2021/06/27 11:37:18;;;;;;;6.30;5.80;;;;;;;;;;4985619;28;20279;-57
2021/06/27 11:39:51;;;;;;;6.60;6.07;;;;;;;;;;4989117;28;20220;-58
2021/06/27 11:42:27;;;;;;;6.20;5.60;;;;;;;;;;4988834;28;20732;-61
2021/06/27 11:45:09;;;;;;;6.53;6.03;;;;;;;;;;4990006;28;20190;-59
2021/06/27 11:47:39;;;;;;;6.43;5.93;;;;;;;;;;4998844;28;20208;-57
2021/06/27 11:50:18;;;;;;;6.87;6.00;;;;;;;;;;4991246;28;20197;-59
2021/06/27 11:52:44;;;;;;;6.17;5.60;;;;;;;;;;4986698;28;20183;-58
2021/06/27 11:55:11;;;;;;;6.60;6.00;;;;;;;;;;4990124;28;20237;-58
2021/06/27 11:57:40;;;;;;;6.23;5.63;;;;;;;;;;4992574;28;20182;-56
2021/06/27 12:00:07;;;;;;;8.57;5.73;;;;;;;;;;4991149;28;20182;-58
2021/06/27 12:02:36;;;;;;;6.10;5.60;;;;;;;;;;4983764;28;20199;-58
2021/06/27 12:05:02;;;;;;;6.00;5.50;;;;;;;;;;4990171;28;20503;-58
2021/06/27 12:07:28;;;;;;;6.37;5.10;;;;;;;;;;4990458;28;20356;-57
2021/06/27 12:09:55;;;;;;;5.93;5.20;;;;;;;;;;4986531;28;20309;-57
2021/06/27 12:12:33;;;;;;;6.10;5.60;;;;;;;;;;4992303;28;20192;-57
2021/06/27 12:14:59;;;;;;;6.60;6.03;;;;;;;;;;4991592;28;20178;-57
2021/06/27 12:17:26;;;;;;;5.97;5.57;;;;;;;;;;4992399;28;20690;-57
2021/06/27 12:19:52;;;;;;;5.87;5.47;;;;;;;;;;4982268;28;20183;-57
2021/06/27 12:22:18;;;;;;;7.10;6.50;;;;;;;;;;4990861;28;20823;-60
2021/06/27 12:24:44;;;;;;;6.13;5.63;;;;;;;;;;4991765;28;20921;-56
2021/06/27 12:27:11;;;;;;;5.90;5.50;;;;;;;;;;4987041;28;20200;-56
2021/06/27 12:29:37;;;;;;;6.33;5.73;;;;;;;;;;4986751;28;20187;-59
2021/06/27 12:32:06;;;;;;;5.30;4.90;;;;;;;;;;4989769;28;20671;-60
2021/06/27 12:34:32;;;;;;;6.00;5.50;;;;;;;;;;4989902;28;20945;-59
2021/06/27 12:36:58;;;;;;;5.90;5.50;;;;;;;;;;5003434;28;20220;-61
2021/06/27 12:39:27;;;;;;;5.93;5.53;;;;;;;;;;4987696;28;20190;-59
2021/06/27 12:42:12;;;;;;;5.60;5.20;;;;;;;;;;4989988;28;20186;-59
2021/06/27 12:44:39;;;;;;;6.73;6.23;;;;;;;;;;4988147;28;20191;-59
2021/06/27 12:47:05;;;;;;;6.03;5.63;;;;;;;;;;4990701;28;20250;-57
2021/06/27 12:49:33;;;;;;;5.97;5.47;;;;;;;;;;4990553;28;20647;-59
2021/06/27 12:51:59;;;;;;;5.63;5.20;;;;;;;;;;4987566;28;20201;-58
2021/06/27 12:54:32;;;;;;;6.53;5.93;;;;;;;;;;4982157;28;20215;-59
2021/06/27 12:57:09;;;;;;;5.77;5.37;;;;;;;;;;4985347;28;20541;-60
2021/06/27 12:59:35;;;;;;;5.60;5.10;;;;;;;;;;4989281;28;20187;-57
2021/06/27 13:02:01;;;;;;;5.87;5.37;;;;;;;;;;4986753;28;20191;-58
2021/06/27 13:04:29;;;;;;;6.15;5.35;;;;;;;;;;4968237;28;20252;-58
2021/06/27 13:06:56;;;;;;;6.70;6.10;;;;;;;;;;4985717;28;20211;-60
2021/06/27 13:09:22;;;;;;;5.55;5.05;;;;;;;;;;4986041;28;20224;-58
2021/06/27 13:12:06;;;;;;;6.10;5.70;;;;;;;;;;4992227;28;20183;-59
2021/06/27 13:14:33;;;;;;;6.90;5.47;;;;;;;;;;5003395;28;20337;-59
2021/06/27 13:17:03;;;;;;;7.05;5.90;;;;;;;;;;4989368;28;20183;-61
2021/06/27 13:19:29;;;;;;;6.32;5.82;;;;;;;;;;4990798;28;20549;-61
2021/06/27 13:22:14;;;;;;;6.07;5.43;;;;;;;;;;4988517;28;20192;-58
2021/06/27 13:24:56;;;;;;;9.20;6.35;;;;;;;;;;4989599;28;20422;-59
2021/06/27 13:27:22;;;;;;;5.70;5.20;;;;;;;;;;4994925;28;20303;-57
2021/06/27 13:30:06;;;;;;;6.53;5.93;;;;;;;;;;4976722;28;20190;-58
2021/06/27 13:32:33;;;;;;;5.60;5.20;;;;;;;;;;4989365;28;20172;-57
2021/06/27 13:34:59;;;;;;;5.50;5.10;;;;;;;;;;4989126;28;20248;-57
2021/06/27 13:37:25;;;;;;;6.20;5.47;;;;;;;;;;4993392;28;20205;-57
2021/06/27 13:39:51;;;;;;;5.93;5.33;;;;;;;;;;4986690;28;20246;-58
2021/06/27 13:42:17;;;;;;;5.90;5.40;;;;;;;;;;4991936;28;20674;-58
2021/06/27 13:44:59;;;;;;;6.30;5.80;;;;;;;;;;4996238;28;20191;-57
2021/06/27 13:47:25;;;;;;;5.87;5.37;;;;;;;;;;4994313;28;20292;-58
2021/06/27 13:49:51;;;;;;;6.20;5.60;;;;;;;;;;4992814;28;20664;-57
2021/06/27 13:52:17;;;;;;;6.37;5.67;;;;;;;;;;5002363;28;20586;-57
2021/06/27 13:54:43;;;;;;;6.40;5.20;;;;;;;;;;5011347;28;20503;-57
2021/06/27 13:57:09;;;;;;;5.70;5.20;;;;;;;;;;4995073;28;20610;-57
2021/06/27 13:59:35;;;;;;;5.90;5.40;;;;;;;;;;4998447;28;20217;-58
2021/06/27 14:02:01;;;;;;;6.80;6.03;;;;;;;;;;4993658;28;20194;-58
2021/06/27 14:04:27;;;;;;;5.97;5.47;;;;;;;;;;4984169;28;20218;-57
2021/06/27 14:06:53;;;;;;;5.80;5.37;;;;;;;;;;4991839;28;20580;-57
2021/06/27 14:09:20;;;;;;;6.30;5.70;;;;;;;;;;4971700;28;20234;-58
2021/06/27 14:11:46;;;;;;;11.43;5.83;;;;;;;;;;4972971;28;20745;-57
2021/06/27 14:14:12;;;;;;;5.73;5.33;;;;;;;;;;4968243;28;20655;-58
2021/06/27 14:16:38;;;;;;;6.13;5.67;;;;;;;;;;4972490;28;20246;-59
2021/06/27 14:19:04;;;;;;;5.60;5.10;;;;;;;;;;4965808;28;20894;-56
2021/06/27 14:21:32;;;;;;;5.40;5.00;;;;;;;;;;4972364;28;20183;-58
2021/06/27 14:23:58;;;;;;;5.67;5.27;;;;;;;;;;4972353;28;20195;-57
2021/06/27 14:26:24;;;;;;;6.20;5.33;;;;;;;;;;4965568;28;20248;-57
2021/06/27 14:28:50;;;;;;;5.60;5.17;;;;;;;;;;4968623;28;20185;-59
2021/06/27 14:31:18;;;;;;;6.10;5.33;;;;;;;;;;4971108;28;20511;-57
2021/06/27 14:33:44;;;;;;;6.63;6.10;;;;;;;;;;4965968;28;20185;-56
2021/06/27 14:36:10;;;;;;;7.03;5.70;;;;;;;;;;4957495;28;20188;-58
2021/06/27 14:38:37;;;;;;;7.27;5.50;;;;;;;;;;4972113;28;20186;-57
2021/06/27 14:41:03;;;;;;;5.70;5.30;;;;;;;;;;4967936;28;20182;-56
2021/06/27 14:43:29;;;;;;;6.23;5.53;;;;;;;;;;4970265;28;20194;-56
2021/06/27 14:45:55;;;;;;;6.57;6.03;;;;;;;;;;4971532;28;20266;-60